Friday, October 19, 2018, 6:57 PM EDT
Back to Local

KAVP, Wilkes-barre/scranton International

Location: Pittston, PA, United States Lat: 41.333
Local Time: 6:57 PM EDT (22:57 GMT) Lon: -75.733
Time Zone: US/Eastern Elev: 961 ft

Show me the last for .
Show Coded

Time T Td Feel RH Dir Speed Gust Alt SLP Vis Weather Sky Remarks
2018-10-19 17:54 53 32 - 44 200° 5 - 30.01 30.01 10 CLR None
2018-10-19 16:54 56 33 - 41 230° 10 - 30.03 30.03 10 CLR None
2018-10-19 15:54 56 35 - 45 240° 9 - 30.04 30.05 10 CLR None
2018-10-19 14:54 56 31 - 38 230° 10 - 30.07 30.07 10 CLR None
2018-10-19 13:54 54 32 - 43 230° 13 21 30.13 30.14 10 CLR 6-hr Min Temp (2pm): 30.9°F
6-hr Max Temp (2pm): 54.0°F
2018-10-19 12:54 52 32 - 46 240° 15 - 30.17 30.18 10 CLR None
2018-10-19 11:54 51 31 - 45 230° 12 - 30.22 30.23 10 CLR None
2018-10-19 10:54 47 31 40 53 240° 14 20 30.24 30.25 10 CLR None
2018-10-19 09:54 44 31 38 59 230° 12 - 30.26 30.28 10 CLR None
2018-10-19 08:54 38 33 - 82 - Calm - 30.28 30.29 10 CLR None
2018-10-19 07:54 31 30 - 96 - Calm - 30.28 30.30 9 CLR 6-hr Min Temp (8am): 30.0°F
6-hr Max Temp (8am): 36.0°F
2018-10-19 06:54 31 30 - 96 - Calm - 30.29 30.31 10 CLR None
2018-10-19 05:54 33 30 - 88 - Calm - 30.29 30.31 10 CLR None
2018-10-19 04:54 32 30 29 92 190° 3 - 30.30 30.31 10 CLR None
2018-10-19 03:54 30 29 - 95 - Calm - 30.30 30.32 10 CLR None
2018-10-19 02:54 31 29 27 92 210° 3 - 30.31 30.32 10 CLR None
2018-10-19 01:54 31 29 - 92 - Calm - 30.32 30.33 10 CLR 6-hr Min Temp (2am): 30.0°F
6-hr Max Temp (2am): 39.9°F
2018-10-19 00:54 32 29 - 88 - Calm - 30.31 30.32 10 CLR 24-hr Min Temp (1am): 30.9°F
24-hr Max Temp (1am): 46.9°F
2018-10-18 23:54 33 28 30 81 120° 3 - 30.33 30.34 10 CLR None
2018-10-18 22:54 35 28 30 75 110° 6 - 30.33 30.34 10 CLR None
2018-10-18 21:54 34 30 31 85 110° 3 - 30.34 30.35 10 CLR None
2018-10-18 20:54 35 31 32 84 120° 3 - 30.34 30.36 10 CLR None
2018-10-18 19:54 40 27 35 59 340° 7 - 30.33 30.35 10 CLR 6-hr Min Temp (8pm): 39.9°F
6-hr Max Temp (8pm): 46.9°F

Support USWX by starting your Amazon purchase here.